Anthony, Kansas
Current Conditions -  °F | °C
As of 12:30 AM on Monday 24 Nov 2014 (Local Time) from KAVK Reporting Station
Few Clouds Few Clouds  
Wind Chill: -1°   Ceiling: Unl
Heat Index:   Visibility: 10mi
Dew Point: -6°   Wind: 10mph
Humidity: 52%   Direction: 300°WNW
Pressure: 29.81"   Gusts: NA
Location:  37.15°N, 98.03°W
Report Text: KAVK 240630Z AUTO 30009KT 10SM FEW043 03/M06 A2981 RMK AO2
Loading
Personal Weather Stations






























Interactive Weather Map New forecast layout! Learn more

10-Day Weather Forecast

Advertisements
Track Severe Weather on mobile